Greendale, Missouri
Current Conditions -  °F | °C
As of 4:10 AM on Saturday 20 Dec 2014 (Local Time) from KSTL Reporting Station
Overcast Overcast  
Wind Chill: 30°   Ceiling: 2800
Heat Index: 36°   Visibility: 8mi
Dew Point: 27°   Wind: 7mph
Humidity: 70%   Direction: 140°SE
Pressure: 30.25"   Gusts: NA
Location:  38.6807°N, 90.3068°W
Report Text: KSTL 201010Z 14006KT 8SM BKN028 OVC060 02/M03 A3025 RMK AO2
Loading
Personal Weather Stations






























Interactive Weather Map New forecast layout! Learn more

10-Day Weather Forecast

Advertisements
Track Severe Weather on mobile